الصفحة الرئيسية
METAR-TAF:

METAR-TAF

مطار :

Kivalina, ألاسكا, الولايات المتحدة

دائرة عرض: 67-44N, خط طول: 164-33W, ارتفاع: 4 متر

مراقبة الطقس الحالي

تاريخ ووقت الإصدار 39 دقيقة قبل الساعة 01:53UTC
ريح 10 عقدة من الجنوب
درجة الحرارة 8°درجة مئوية
الرطوبة 87%
ضغط 1009 hPa
الرؤية: 16.1 كم
غيوم قليلة على ارتفاع 1000 قدم
ملبد بالغيوم على ارتفاع 8000 قدم

METAR: PAVL 180153Z AUTO 17010KT 10SM FEW010 OVC080 08/06 A2979 RMK AO2 RAB04E27 SLP087 T00780056 TSNO PNO

زمن: 18:32 (02:32 UTC)


TAF: مفقودة

أرصاد الطقس والتوقعات من أكثر من 4000 مطار (تقارير الطقس للمطار METAR والتنبؤ بالطقس بالمطارTAF).

المحطات المتاحة هي النقط الصفراء والحمراء على الخريطة.

حرك المؤشر فوق النقطة لمعرفة اسم المحطة.

ثم انقر لمعرفة أرصاد وتوقعات الطقس.

لتغيير الخارطة: اضغط على الأزرار الخضراء مع رمز الصليب الأسود للتكبير. على الزر الأخضر مع شرطة للتصغير، أو على الأسهم الخضراء للخرائط المجاورة.


METAR-TAF: